sensor_id;sensor_type;location;lat;lon;timestamp;P1;durP1;ratioP1;P2;durP2;ratioP2
16401;SDS011;8310;44.626;11.176;2022-07-29T00:02:06;5.40;;;4.90;;
16401;SDS011;8310;44.626;11.176;2022-07-29T00:04:34;5.30;;;4.88;;
16401;SDS011;8310;44.626;11.176;2022-07-29T00:07:02;5.80;;;5.10;;
16401;SDS011;8310;44.626;11.176;2022-07-29T00:09:30;5.22;;;4.82;;
16401;SDS011;8310;44.626;11.176;2022-07-29T00:11:59;5.57;;;4.95;;
16401;SDS011;8310;44.626;11.176;2022-07-29T00:14:28;5.15;;;4.75;;
16401;SDS011;8310;44.626;11.176;2022-07-29T00:16:56;4.68;;;4.38;;
16401;SDS011;8310;44.626;11.176;2022-07-29T00:19:28;5.97;;;5.47;;
16401;SDS011;8310;44.626;11.176;2022-07-29T00:21:55;5.20;;;4.80;;
16401;SDS011;8310;44.626;11.176;2022-07-29T00:24:23;5.93;;;5.32;;
16401;SDS011;8310;44.626;11.176;2022-07-29T00:26:50;5.20;;;4.80;;
16401;SDS011;8310;44.626;11.176;2022-07-29T00:29:18;5.43;;;5.03;;
16401;SDS011;8310;44.626;11.176;2022-07-29T00:31:45;4.97;;;4.57;;
16401;SDS011;8310;44.626;11.176;2022-07-29T00:34:13;4.95;;;4.43;;
16401;SDS011;8310;44.626;11.176;2022-07-29T00:36:55;5.05;;;4.65;;
16401;SDS011;8310;44.626;11.176;2022-07-29T00:39:23;4.80;;;4.40;;
16401;SDS011;8310;44.626;11.176;2022-07-29T00:41:50;5.80;;;4.88;;
16401;SDS011;8310;44.626;11.176;2022-07-29T00:44:18;5.22;;;4.72;;
16401;SDS011;8310;44.626;11.176;2022-07-29T00:46:46;4.80;;;4.40;;
16401;SDS011;8310;44.626;11.176;2022-07-29T00:49:13;5.18;;;4.63;;
16401;SDS011;8310;44.626;11.176;2022-07-29T00:51:41;4.80;;;4.50;;
16401;SDS011;8310;44.626;11.176;2022-07-29T00:54:10;5.38;;;4.90;;
16401;SDS011;8310;44.626;11.176;2022-07-29T00:56:39;5.32;;;4.93;;
16401;SDS011;8310;44.626;11.176;2022-07-29T00:59:07;5.07;;;4.60;;
16401;SDS011;8310;44.626;11.176;2022-07-29T01:01:35;5.35;;;4.95;;
16401;SDS011;8310;44.626;11.176;2022-07-29T01:04:02;5.75;;;5.20;;
16401;SDS011;8310;44.626;11.176;2022-07-29T01:06:32;5.80;;;4.70;;
16401;SDS011;8310;44.626;11.176;2022-07-29T01:09:00;5.55;;;5.05;;
16401;SDS011;8310;44.626;11.176;2022-07-29T01:11:29;5.53;;;5.00;;
16401;SDS011;8310;44.626;11.176;2022-07-29T01:13:57;5.47;;;5.05;;
16401;SDS011;8310;44.626;11.176;2022-07-29T01:16:27;6.47;;;5.88;;
16401;SDS011;8310;44.626;11.176;2022-07-29T01:19:00;5.85;;;5.43;;
16401;SDS011;8310;44.626;11.176;2022-07-29T01:21:40;5.68;;;5.22;;
16401;SDS011;8310;44.626;11.176;2022-07-29T01:24:27;5.75;;;5.25;;
16401;SDS011;8310;44.626;11.176;2022-07-29T01:27:11;5.75;;;5.25;;
16401;SDS011;8310;44.626;11.176;2022-07-29T01:29:58;5.93;;;5.43;;
16401;SDS011;8310;44.626;11.176;2022-07-29T01:32:29;6.15;;;5.65;;
16401;SDS011;8310;44.626;11.176;2022-07-29T01:35:02;5.28;;;4.78;;
16401;SDS011;8310;44.626;11.176;2022-07-29T01:37:34;5.97;;;5.50;;
16401;SDS011;8310;44.626;11.176;2022-07-29T01:40:08;6.35;;;5.78;;
16401;SDS011;8310;44.626;11.176;2022-07-29T01:42:43;6.70;;;6.10;;
16401;SDS011;8310;44.626;11.176;2022-07-29T01:45:17;7.25;;;6.55;;
16401;SDS011;8310;44.626;11.176;2022-07-29T01:47:50;6.57;;;5.90;;
16401;SDS011;8310;44.626;11.176;2022-07-29T01:50:26;6.60;;;6.10;;
16401;SDS011;8310;44.626;11.176;2022-07-29T01:53:00;6.47;;;5.80;;
16401;SDS011;8310;44.626;11.176;2022-07-29T01:55:31;7.03;;;6.22;;
16401;SDS011;8310;44.626;11.176;2022-07-29T01:58:02;6.80;;;6.20;;
16401;SDS011;8310;44.626;11.176;2022-07-29T02:00:33;7.28;;;6.60;;
16401;SDS011;8310;44.626;11.176;2022-07-29T02:03:03;7.25;;;6.63;;
16401;SDS011;8310;44.626;11.176;2022-07-29T02:05:35;7.10;;;6.55;;
16401;SDS011;8310;44.626;11.176;2022-07-29T02:08:07;6.82;;;6.25;;
16401;SDS011;8310;44.626;11.176;2022-07-29T02:10:36;6.15;;;5.65;;
16401;SDS011;8310;44.626;11.176;2022-07-29T02:13:06;6.53;;;6.03;;
16401;SDS011;8310;44.626;11.176;2022-07-29T02:15:37;7.53;;;6.82;;
16401;SDS011;8310;44.626;11.176;2022-07-29T02:18:09;7.18;;;6.68;;
16401;SDS011;8310;44.626;11.176;2022-07-29T02:20:41;9.20;;;8.35;;
16401;SDS011;8310;44.626;11.176;2022-07-29T02:23:11;9.20;;;8.00;;
16401;SDS011;8310;44.626;11.176;2022-07-29T02:25:41;8.43;;;7.63;;
16401;SDS011;8310;44.626;11.176;2022-07-29T02:28:09;9.48;;;8.68;;
16401;SDS011;8310;44.626;11.176;2022-07-29T02:30:40;9.27;;;8.38;;
16401;SDS011;8310;44.626;11.176;2022-07-29T02:33:10;9.95;;;8.93;;
16401;SDS011;8310;44.626;11.176;2022-07-29T02:35:40;9.95;;;9.05;;
16401;SDS011;8310;44.626;11.176;2022-07-29T02:38:10;11.15;;;10.05;;
16401;SDS011;8310;44.626;11.176;2022-07-29T02:40:56;9.82;;;8.57;;
16401;SDS011;8310;44.626;11.176;2022-07-29T02:43:26;9.60;;;8.60;;
16401;SDS011;8310;44.626;11.176;2022-07-29T02:45:58;8.27;;;7.47;;
16401;SDS011;8310;44.626;11.176;2022-07-29T02:48:31;8.27;;;7.57;;
16401;SDS011;8310;44.626;11.176;2022-07-29T02:51:05;8.35;;;7.75;;
16401;SDS011;8310;44.626;11.176;2022-07-29T02:53:38;7.72;;;7.07;;
16401;SDS011;8310;44.626;11.176;2022-07-29T02:56:11;8.07;;;7.30;;
16401;SDS011;8310;44.626;11.176;2022-07-29T02:58:42;7.95;;;7.25;;
16401;SDS011;8310;44.626;11.176;2022-07-29T03:01:17;8.57;;;7.78;;
16401;SDS011;8310;44.626;11.176;2022-07-29T03:03:49;9.10;;;8.15;;
16401;SDS011;8310;44.626;11.176;2022-07-29T03:06:19;8.15;;;7.45;;
16401;SDS011;8310;44.626;11.176;2022-07-29T03:08:49;8.80;;;8.10;;
16401;SDS011;8310;44.626;11.176;2022-07-29T03:11:18;10.98;;;7.85;;
16401;SDS011;8310;44.626;11.176;2022-07-29T03:13:46;9.48;;;8.30;;
16401;SDS011;8310;44.626;11.176;2022-07-29T03:16:15;8.52;;;7.70;;
16401;SDS011;8310;44.626;11.176;2022-07-29T03:18:45;9.95;;;8.52;;
16401;SDS011;8310;44.626;11.176;2022-07-29T03:21:14;8.63;;;7.72;;
16401;SDS011;8310;44.626;11.176;2022-07-29T03:23:43;8.20;;;7.45;;
16401;SDS011;8310;44.626;11.176;2022-07-29T03:26:11;8.68;;;7.97;;
16401;SDS011;8310;44.626;11.176;2022-07-29T03:28:39;8.35;;;7.25;;
16401;SDS011;8310;44.626;11.176;2022-07-29T03:31:07;8.30;;;7.60;;
16401;SDS011;8310;44.626;11.176;2022-07-29T03:33:36;8.43;;;7.72;;
16401;SDS011;8310;44.626;11.176;2022-07-29T03:36:04;8.20;;;7.40;;
16401;SDS011;8310;44.626;11.176;2022-07-29T03:38:33;8.48;;;7.72;;
16401;SDS011;8310;44.626;11.176;2022-07-29T03:41:03;9.82;;;8.93;;
16401;SDS011;8310;44.626;11.176;2022-07-29T03:43:35;9.40;;;8.57;;
16401;SDS011;8310;44.626;11.176;2022-07-29T03:46:04;8.57;;;7.60;;
16401;SDS011;8310;44.626;11.176;2022-07-29T03:48:34;8.98;;;7.85;;
16401;SDS011;8310;44.626;11.176;2022-07-29T03:51:09;8.35;;;7.65;;
16401;SDS011;8310;44.626;11.176;2022-07-29T03:53:36;9.77;;;7.15;;
16401;SDS011;8310;44.626;11.176;2022-07-29T03:56:07;7.60;;;6.90;;
16401;SDS011;8310;44.626;11.176;2022-07-29T03:58:38;8.27;;;7.57;;
16401;SDS011;8310;44.626;11.176;2022-07-29T04:01:06;8.43;;;7.63;;
16401;SDS011;8310;44.626;11.176;2022-07-29T04:03:34;8.35;;;7.65;;
16401;SDS011;8310;44.626;11.176;2022-07-29T04:06:03;8.23;;;7.22;;
16401;SDS011;8310;44.626;11.176;2022-07-29T04:08:32;7.93;;;7.32;;
16401;SDS011;8310;44.626;11.176;2022-07-29T04:11:00;9.02;;;8.15;;
16401;SDS011;8310;44.626;11.176;2022-07-29T04:13:32;9.38;;;8.52;;
16401;SDS011;8310;44.626;11.176;2022-07-29T04:16:00;9.93;;;8.90;;
16401;SDS011;8310;44.626;11.176;2022-07-29T04:18:27;9.90;;;8.85;;
16401;SDS011;8310;44.626;11.176;2022-07-29T04:20:55;9.35;;;8.55;;
16401;SDS011;8310;44.626;11.176;2022-07-29T04:23:27;8.57;;;7.78;;
16401;SDS011;8310;44.626;11.176;2022-07-29T04:25:57;8.93;;;8.23;;
16401;SDS011;8310;44.626;11.176;2022-07-29T04:28:25;9.23;;;8.32;;
16401;SDS011;8310;44.626;11.176;2022-07-29T04:30:53;8.80;;;7.97;;
16401;SDS011;8310;44.626;11.176;2022-07-29T04:33:20;8.38;;;7.60;;
16401;SDS011;8310;44.626;11.176;2022-07-29T04:35:48;9.68;;;8.38;;
16401;SDS011;8310;44.626;11.176;2022-07-29T04:38:15;8.88;;;8.02;;
16401;SDS011;8310;44.626;11.176;2022-07-29T04:40:45;7.90;;;7.28;;
16401;SDS011;8310;44.626;11.176;2022-07-29T04:43:13;9.10;;;7.50;;
16401;SDS011;8310;44.626;11.176;2022-07-29T04:45:42;8.43;;;7.35;;
16401;SDS011;8310;44.626;11.176;2022-07-29T04:48:10;8.98;;;8.27;;
16401;SDS011;8310;44.626;11.176;2022-07-29T04:50:38;8.75;;;7.88;;
16401;SDS011;8310;44.626;11.176;2022-07-29T04:53:06;9.88;;;8.93;;
16401;SDS011;8310;44.626;11.176;2022-07-29T04:55:34;11.02;;;8.88;;
16401;SDS011;8310;44.626;11.176;2022-07-29T04:58:06;11.93;;;9.20;;
16401;SDS011;8310;44.626;11.176;2022-07-29T05:00:34;11.23;;;10.18;;
16401;SDS011;8310;44.626;11.176;2022-07-29T05:03:02;11.75;;;10.60;;
16401;SDS011;8310;44.626;11.176;2022-07-29T05:05:30;12.65;;;10.48;;
16401;SDS011;8310;44.626;11.176;2022-07-29T05:07:57;12.02;;;10.50;;
16401;SDS011;8310;44.626;11.176;2022-07-29T05:10:25;10.80;;;9.75;;
16401;SDS011;8310;44.626;11.176;2022-07-29T05:12:52;11.18;;;10.10;;
16401;SDS011;8310;44.626;11.176;2022-07-29T05:15:43;11.30;;;10.30;;
16401;SDS011;8310;44.626;11.176;2022-07-29T05:18:10;16.58;;;11.18;;
16401;SDS011;8310;44.626;11.176;2022-07-29T05:20:39;13.55;;;10.85;;
16401;SDS011;8310;44.626;11.176;2022-07-29T05:23:06;11.73;;;10.40;;
16401;SDS011;8310;44.626;11.176;2022-07-29T05:25:34;34.28;;;11.68;;
16401;SDS011;8310;44.626;11.176;2022-07-29T05:28:02;10.77;;;9.77;;
16401;SDS011;8310;44.626;11.176;2022-07-29T05:30:30;11.25;;;10.20;;
16401;SDS011;8310;44.626;11.176;2022-07-29T05:33:00;14.40;;;10.75;;
16401;SDS011;8310;44.626;11.176;2022-07-29T05:35:28;13.48;;;11.10;;
16401;SDS011;8310;44.626;11.176;2022-07-29T05:37:56;12.63;;;11.27;;
16401;SDS011;8310;44.626;11.176;2022-07-29T05:40:24;12.88;;;10.85;;
16401;SDS011;8310;44.626;11.176;2022-07-29T05:42:51;14.00;;;11.38;;
16401;SDS011;8310;44.626;11.176;2022-07-29T05:45:19;12.40;;;11.07;;
16401;SDS011;8310;44.626;11.176;2022-07-29T05:47:46;12.35;;;11.10;;
16401;SDS011;8310;44.626;11.176;2022-07-29T05:50:16;13.43;;;12.05;;
16401;SDS011;8310;44.626;11.176;2022-07-29T05:52:43;12.70;;;11.43;;
16401;SDS011;8310;44.626;11.176;2022-07-29T05:55:11;13.15;;;11.63;;
16401;SDS011;8310;44.626;11.176;2022-07-29T05:57:38;12.32;;;10.52;;
16401;SDS011;8310;44.626;11.176;2022-07-29T06:00:06;12.43;;;11.13;;
16401;SDS011;8310;44.626;11.176;2022-07-29T06:02:35;13.10;;;10.98;;
16401;SDS011;8310;44.626;11.176;2022-07-29T06:05:02;16.13;;;11.75;;
16401;SDS011;8310;44.626;11.176;2022-07-29T06:07:32;11.65;;;10.52;;
16401;SDS011;8310;44.626;11.176;2022-07-29T06:10:00;13.90;;;11.98;;
16401;SDS011;8310;44.626;11.176;2022-07-29T06:12:28;27.58;;;13.20;;
16401;SDS011;8310;44.626;11.176;2022-07-29T06:14:56;12.32;;;11.00;;
16401;SDS011;8310;44.626;11.176;2022-07-29T06:17:23;13.68;;;12.27;;
16401;SDS011;8310;44.626;11.176;2022-07-29T06:19:51;12.57;;;10.90;;
16401;SDS011;8310;44.626;11.176;2022-07-29T06:22:18;14.15;;;12.60;;
16401;SDS011;8310;44.626;11.176;2022-07-29T06:24:47;22.25;;;12.02;;
16401;SDS011;8310;44.626;11.176;2022-07-29T06:27:15;13.35;;;11.90;;
16401;SDS011;8310;44.626;11.176;2022-07-29T06:29:43;11.68;;;10.50;;
16401;SDS011;8310;44.626;11.176;2022-07-29T06:32:10;13.80;;;10.98;;
16401;SDS011;8310;44.626;11.176;2022-07-29T06:34:37;11.63;;;10.13;;
16401;SDS011;8310;44.626;11.176;2022-07-29T06:37:05;12.30;;;10.93;;
16401;SDS011;8310;44.626;11.176;2022-07-29T06:39:33;12.07;;;10.45;;
16401;SDS011;8310;44.626;11.176;2022-07-29T06:42:03;12.68;;;10.77;;
16401;SDS011;8310;44.626;11.176;2022-07-29T06:44:31;16.00;;;11.27;;
16401;SDS011;8310;44.626;11.176;2022-07-29T06:47:00;10.75;;;9.75;;
16401;SDS011;8310;44.626;11.176;2022-07-29T06:49:28;11.75;;;9.75;;
16401;SDS011;8310;44.626;11.176;2022-07-29T06:51:55;10.68;;;9.55;;
16401;SDS011;8310;44.626;11.176;2022-07-29T06:54:23;9.13;;;8.13;;
16401;SDS011;8310;44.626;11.176;2022-07-29T06:56:51;8.82;;;7.95;;
16401;SDS011;8310;44.626;11.176;2022-07-29T06:59:21;7.97;;;7.38;;
16401;SDS011;8310;44.626;11.176;2022-07-29T07:01:48;7.32;;;6.38;;
16401;SDS011;8310;44.626;11.176;2022-07-29T07:04:16;8.35;;;7.55;;
16401;SDS011;8310;44.626;11.176;2022-07-29T07:06:43;14.45;;;8.20;;
16401;SDS011;8310;44.626;11.176;2022-07-29T07:09:11;7.38;;;6.70;;
16401;SDS011;8310;44.626;11.176;2022-07-29T07:11:39;8.02;;;7.32;;
16401;SDS011;8310;44.626;11.176;2022-07-29T07:14:06;10.55;;;7.97;;
16401;SDS011;8310;44.626;11.176;2022-07-29T07:16:35;7.80;;;7.10;;
16401;SDS011;8310;44.626;11.176;2022-07-29T07:19:04;9.65;;;7.53;;
16401;SDS011;8310;44.626;11.176;2022-07-29T07:21:32;14.43;;;7.93;;
16401;SDS011;8310;44.626;11.176;2022-07-29T07:24:00;9.35;;;8.55;;
16401;SDS011;8310;44.626;11.176;2022-07-29T07:26:28;20.88;;;9.40;;
16401;SDS011;8310;44.626;11.176;2022-07-29T07:28:55;8.70;;;7.80;;
16401;SDS011;8310;44.626;11.176;2022-07-29T07:31:23;9.80;;;8.80;;
16401;SDS011;8310;44.626;11.176;2022-07-29T07:33:52;10.80;;;9.70;;
16401;SDS011;8310;44.626;11.176;2022-07-29T07:36:20;9.70;;;8.80;;
16401;SDS011;8310;44.626;11.176;2022-07-29T07:38:48;9.55;;;8.10;;
16401;SDS011;8310;44.626;11.176;2022-07-29T07:41:16;8.95;;;8.18;;
16401;SDS011;8310;44.626;11.176;2022-07-29T07:43:44;17.35;;;8.55;;
16401;SDS011;8310;44.626;11.176;2022-07-29T07:46:11;8.05;;;7.30;;
16401;SDS011;8310;44.626;11.176;2022-07-29T07:48:39;7.80;;;7.18;;
16401;SDS011;8310;44.626;11.176;2022-07-29T07:51:34;7.88;;;6.90;;
16401;SDS011;8310;44.626;11.176;2022-07-29T07:54:02;8.75;;;6.50;;
16401;SDS011;8310;44.626;11.176;2022-07-29T07:56:30;6.32;;;5.78;;
16401;SDS011;8310;44.626;11.176;2022-07-29T07:58:58;6.95;;;6.35;;
16401;SDS011;8310;44.626;11.176;2022-07-29T08:01:26;8.52;;;6.85;;
16401;SDS011;8310;44.626;11.176;2022-07-29T08:03:54;7.45;;;6.80;;
16401;SDS011;8310;44.626;11.176;2022-07-29T08:06:21;6.55;;;5.95;;
16401;SDS011;8310;44.626;11.176;2022-07-29T08:08:51;7.70;;;6.25;;
16401;SDS011;8310;44.626;11.176;2022-07-29T08:11:19;7.22;;;6.55;;
16401;SDS011;8310;44.626;11.176;2022-07-29T08:13:47;7.45;;;6.55;;
16401;SDS011;8310;44.626;11.176;2022-07-29T08:16:15;173.63;;;22.40;;
16401;SDS011;8310;44.626;11.176;2022-07-29T08:18:42;6.00;;;5.60;;
16401;SDS011;8310;44.626;11.176;2022-07-29T08:21:11;7.93;;;5.97;;
16401;SDS011;8310;44.626;11.176;2022-07-29T08:23:39;7.22;;;6.53;;
16401;SDS011;8310;44.626;11.176;2022-07-29T08:26:13;7.97;;;6.47;;
16401;SDS011;8310;44.626;11.176;2022-07-29T08:28:41;7.97;;;6.07;;
16401;SDS011;8310;44.626;11.176;2022-07-29T08:31:11;7.13;;;5.28;;
16401;SDS011;8310;44.626;11.176;2022-07-29T08:33:38;6.60;;;6.00;;
16401;SDS011;8310;44.626;11.176;2022-07-29T08:36:06;6.63;;;6.13;;
16401;SDS011;8310;44.626;11.176;2022-07-29T08:38:34;6.95;;;6.25;;
16401;SDS011;8310;44.626;11.176;2022-07-29T08:41:02;8.30;;;6.78;;
16401;SDS011;8310;44.626;11.176;2022-07-29T08:43:31;5.43;;;4.95;;
16401;SDS011;8310;44.626;11.176;2022-07-29T08:46:02;7.75;;;6.20;;
16401;SDS011;8310;44.626;11.176;2022-07-29T08:48:29;6.00;;;5.57;;
16401;SDS011;8310;44.626;11.176;2022-07-29T08:50:58;7.78;;;7.00;;
16401;SDS011;8310;44.626;11.176;2022-07-29T08:53:26;7.20;;;5.85;;
16401;SDS011;8310;44.626;11.176;2022-07-29T08:55:55;8.32;;;7.47;;
16401;SDS011;8310;44.626;11.176;2022-07-29T08:58:24;9.43;;;8.52;;
16401;SDS011;8310;44.626;11.176;2022-07-29T09:00:55;8.98;;;7.88;;
16401;SDS011;8310;44.626;11.176;2022-07-29T09:03:24;8.48;;;7.78;;
16401;SDS011;8310;44.626;11.176;2022-07-29T09:05:54;8.98;;;8.27;;
16401;SDS011;8310;44.626;11.176;2022-07-29T09:08:21;7.93;;;6.97;;
16401;SDS011;8310;44.626;11.176;2022-07-29T09:10:49;7.18;;;6.63;;
16401;SDS011;8310;44.626;11.176;2022-07-29T09:13:17;7.05;;;6.40;;
16401;SDS011;8310;44.626;11.176;2022-07-29T09:15:45;6.35;;;5.85;;
16401;SDS011;8310;44.626;11.176;2022-07-29T09:18:14;6.60;;;6.05;;
16401;SDS011;8310;44.626;11.176;2022-07-29T09:21:00;6.18;;;5.70;;
16401;SDS011;8310;44.626;11.176;2022-07-29T09:23:59;8.02;;;6.78;;
16401;SDS011;8310;44.626;11.176;2022-07-29T09:26:28;6.22;;;5.72;;
16401;SDS011;8310;44.626;11.176;2022-07-29T09:28:57;6.57;;;6.07;;
16401;SDS011;8310;44.626;11.176;2022-07-29T09:31:34;6.38;;;5.97;;
16401;SDS011;8310;44.626;11.176;2022-07-29T09:34:05;5.82;;;5.22;;
16401;SDS011;8310;44.626;11.176;2022-07-29T09:36:38;6.03;;;5.63;;
16401;SDS011;8310;44.626;11.176;2022-07-29T09:39:07;6.97;;;4.72;;
16401;SDS011;8310;44.626;11.176;2022-07-29T09:41:48;5.57;;;5.18;;
16401;SDS011;8310;44.626;11.176;2022-07-29T09:44:18;9.15;;;5.43;;
16401;SDS011;8310;44.626;11.176;2022-07-29T09:46:58;12.43;;;6.75;;
16401;SDS011;8310;44.626;11.176;2022-07-29T09:52:08;6.40;;;5.63;;
16401;SDS011;8310;44.626;11.176;2022-07-29T09:54:36;7.13;;;6.50;;
16401;SDS011;8310;44.626;11.176;2022-07-29T09:57:04;7.43;;;6.50;;
16401;SDS011;8310;44.626;11.176;2022-07-29T09:59:32;6.70;;;6.00;;
16401;SDS011;8310;44.626;11.176;2022-07-29T10:02:00;6.50;;;5.95;;
16401;SDS011;8310;44.626;11.176;2022-07-29T10:04:38;7.13;;;6.18;;
16401;SDS011;8310;44.626;11.176;2022-07-29T10:07:07;7.38;;;6.60;;
16401;SDS011;8310;44.626;11.176;2022-07-29T10:09:35;7.00;;;6.35;;
16401;SDS011;8310;44.626;11.176;2022-07-29T10:12:03;6.13;;;5.55;;
16401;SDS011;8310;44.626;11.176;2022-07-29T10:14:32;22.02;;;7.32;;
16401;SDS011;8310;44.626;11.176;2022-07-29T10:17:00;7.95;;;6.10;;
16401;SDS011;8310;44.626;11.176;2022-07-29T10:19:29;6.82;;;6.20;;
16401;SDS011;8310;44.626;11.176;2022-07-29T10:21:58;5.68;;;5.15;;
16401;SDS011;8310;44.626;11.176;2022-07-29T10:24:28;7.75;;;6.32;;
16401;SDS011;8310;44.626;11.176;2022-07-29T10:26:57;6.43;;;5.85;;
16401;SDS011;8310;44.626;11.176;2022-07-29T10:29:26;7.15;;;6.20;;
16401;SDS011;8310;44.626;11.176;2022-07-29T10:32:00;7.03;;;6.32;;
16401;SDS011;8310;44.626;11.176;2022-07-29T10:34:48;6.88;;;6.18;;
16401;SDS011;8310;44.626;11.176;2022-07-29T10:37:52;7.13;;;6.50;;
16401;SDS011;8310;44.626;11.176;2022-07-29T10:40:41;6.70;;;6.10;;
16401;SDS011;8310;44.626;11.176;2022-07-29T10:43:32;6.00;;;5.50;;
16401;SDS011;8310;44.626;11.176;2022-07-29T10:46:03;7.93;;;5.68;;
16401;SDS011;8310;44.626;11.176;2022-07-29T10:48:32;6.40;;;5.75;;
16401;SDS011;8310;44.626;11.176;2022-07-29T10:51:00;6.00;;;5.57;;
16401;SDS011;8310;44.626;11.176;2022-07-29T10:53:48;5.90;;;5.40;;
16401;SDS011;8310;44.626;11.176;2022-07-29T10:56:24;6.32;;;5.68;;
16401;SDS011;8310;44.626;11.176;2022-07-29T11:01:51;5.30;;;4.90;;
16401;SDS011;8310;44.626;11.176;2022-07-29T11:07:22;5.45;;;4.93;;
16401;SDS011;8310;44.626;11.176;2022-07-29T11:12:50;5.43;;;4.82;;
16401;SDS011;8310;44.626;11.176;2022-07-29T11:15:20;5.68;;;5.30;;
16401;SDS011;8310;44.626;11.176;2022-07-29T11:18:02;5.65;;;4.90;;
16401;SDS011;8310;44.626;11.176;2022-07-29T11:20:31;4.93;;;4.63;;
16401;SDS011;8310;44.626;11.176;2022-07-29T11:23:16;5.15;;;4.80;;
16401;SDS011;8310;44.626;11.176;2022-07-29T11:28:49;5.47;;;4.72;;
16401;SDS011;8310;44.626;11.176;2022-07-29T11:31:31;4.95;;;4.65;;
16401;SDS011;8310;44.626;11.176;2022-07-29T11:34:16;4.68;;;4.38;;
16401;SDS011;8310;44.626;11.176;2022-07-29T11:39:47;5.18;;;4.78;;
16401;SDS011;8310;44.626;11.176;2022-07-29T11:42:37;4.57;;;4.28;;
16401;SDS011;8310;44.626;11.176;2022-07-29T11:45:16;5.38;;;4.90;;
16401;SDS011;8310;44.626;11.176;2022-07-29T11:47:52;6.47;;;4.40;;
16401;SDS011;8310;44.626;11.176;2022-07-29T11:50:27;4.68;;;4.32;;
16401;SDS011;8310;44.626;11.176;2022-07-29T11:53:02;4.93;;;4.40;;
16401;SDS011;8310;44.626;11.176;2022-07-29T11:55:36;4.88;;;4.47;;
16401;SDS011;8310;44.626;11.176;2022-07-29T11:58:05;5.05;;;4.65;;
16401;SDS011;8310;44.626;11.176;2022-07-29T12:00:34;4.60;;;4.20;;
16401;SDS011;8310;44.626;11.176;2022-07-29T12:03:05;5.00;;;4.65;;
16401;SDS011;8310;44.626;11.176;2022-07-29T12:05:38;5.03;;;4.35;;
16401;SDS011;8310;44.626;11.176;2022-07-29T12:08:17;4.82;;;4.35;;
16401;SDS011;8310;44.626;11.176;2022-07-29T12:10:46;4.72;;;4.43;;
16401;SDS011;8310;44.626;11.176;2022-07-29T12:13:15;4.50;;;4.18;;
16401;SDS011;8310;44.626;11.176;2022-07-29T12:15:52;4.90;;;4.40;;
16401;SDS011;8310;44.626;11.176;2022-07-29T12:18:21;5.05;;;4.65;;
16401;SDS011;8310;44.626;11.176;2022-07-29T12:20:56;5.25;;;4.50;;
16401;SDS011;8310;44.626;11.176;2022-07-29T12:23:24;4.38;;;4.07;;
16401;SDS011;8310;44.626;11.176;2022-07-29T12:25:51;5.43;;;4.30;;
16401;SDS011;8310;44.626;11.176;2022-07-29T12:28:19;4.75;;;4.35;;
16401;SDS011;8310;44.626;11.176;2022-07-29T12:30:48;5.00;;;4.53;;
16401;SDS011;8310;44.626;11.176;2022-07-29T12:33:18;5.30;;;4.40;;
16401;SDS011;8310;44.626;11.176;2022-07-29T12:35:48;5.25;;;4.55;;
16401;SDS011;8310;44.626;11.176;2022-07-29T12:38:17;4.63;;;4.22;;
16401;SDS011;8310;44.626;11.176;2022-07-29T12:40:45;4.72;;;4.35;;
16401;SDS011;8310;44.626;11.176;2022-07-29T12:43:14;4.63;;;4.22;;
16401;SDS011;8310;44.626;11.176;2022-07-29T12:45:43;4.93;;;4.10;;
16401;SDS011;8310;44.626;11.176;2022-07-29T12:48:12;4.18;;;3.88;;
16401;SDS011;8310;44.626;11.176;2022-07-29T12:51:04;4.18;;;3.95;;
16401;SDS011;8310;44.626;11.176;2022-07-29T12:53:33;4.43;;;4.00;;
16401;SDS011;8310;44.626;11.176;2022-07-29T12:56:02;4.45;;;4.13;;
16401;SDS011;8310;44.626;11.176;2022-07-29T12:58:32;4.60;;;4.20;;
16401;SDS011;8310;44.626;11.176;2022-07-29T13:01:08;4.10;;;3.80;;
16401;SDS011;8310;44.626;11.176;2022-07-29T13:03:47;5.05;;;4.40;;
16401;SDS011;8310;44.626;11.176;2022-07-29T13:06:31;4.45;;;4.00;;
16401;SDS011;8310;44.626;11.176;2022-07-29T13:09:03;4.45;;;4.10;;
16401;SDS011;8310;44.626;11.176;2022-07-29T13:11:34;4.28;;;3.97;;
16401;SDS011;8310;44.626;11.176;2022-07-29T13:14:03;5.60;;;4.47;;
16401;SDS011;8310;44.626;11.176;2022-07-29T13:16:32;4.88;;;4.47;;
16401;SDS011;8310;44.626;11.176;2022-07-29T13:19:07;4.60;;;4.20;;
16401;SDS011;8310;44.626;11.176;2022-07-29T13:21:38;4.68;;;4.05;;
16401;SDS011;8310;44.626;11.176;2022-07-29T13:24:06;9.48;;;5.28;;
16401;SDS011;8310;44.626;11.176;2022-07-29T13:26:34;4.90;;;4.50;;
16401;SDS011;8310;44.626;11.176;2022-07-29T13:29:06;5.13;;;4.63;;
16401;SDS011;8310;44.626;11.176;2022-07-29T13:31:34;4.93;;;4.53;;
16401;SDS011;8310;44.626;11.176;2022-07-29T13:34:02;4.55;;;4.20;;
16401;SDS011;8310;44.626;11.176;2022-07-29T13:36:29;4.93;;;4.53;;
16401;SDS011;8310;44.626;11.176;2022-07-29T13:38:58;5.40;;;4.38;;
16401;SDS011;8310;44.626;11.176;2022-07-29T13:41:27;4.22;;;4.00;;
16401;SDS011;8310;44.626;11.176;2022-07-29T13:43:55;4.38;;;4.07;;
16401;SDS011;8310;44.626;11.176;2022-07-29T13:46:23;4.30;;;4.00;;
16401;SDS011;8310;44.626;11.176;2022-07-29T13:48:51;4.97;;;4.40;;
16401;SDS011;8310;44.626;11.176;2022-07-29T13:51:18;4.93;;;4.50;;
16401;SDS011;8310;44.626;11.176;2022-07-29T13:53:46;4.20;;;3.90;;
16401;SDS011;8310;44.626;11.176;2022-07-29T13:56:15;4.70;;;4.28;;
16401;SDS011;8310;44.626;11.176;2022-07-29T13:58:43;4.78;;;4.38;;
16401;SDS011;8310;44.626;11.176;2022-07-29T14:01:10;4.63;;;4.32;;
16401;SDS011;8310;44.626;11.176;2022-07-29T14:03:38;4.50;;;4.20;;
16401;SDS011;8310;44.626;11.176;2022-07-29T14:06:08;5.53;;;4.47;;
16401;SDS011;8310;44.626;11.176;2022-07-29T14:08:35;4.65;;;4.35;;
16401;SDS011;8310;44.626;11.176;2022-07-29T14:11:03;4.53;;;4.18;;
16401;SDS011;8310;44.626;11.176;2022-07-29T14:13:32;4.50;;;4.13;;
16401;SDS011;8310;44.626;11.176;2022-07-29T14:15:59;5.47;;;4.97;;
16401;SDS011;8310;44.626;11.176;2022-07-29T14:18:27;5.15;;;4.72;;
16401;SDS011;8310;44.626;11.176;2022-07-29T14:20:55;5.10;;;4.40;;
16401;SDS011;8310;44.626;11.176;2022-07-29T14:23:23;5.43;;;5.03;;
16401;SDS011;8310;44.626;11.176;2022-07-29T14:25:51;5.18;;;4.65;;
16401;SDS011;8310;44.626;11.176;2022-07-29T14:28:18;5.13;;;4.72;;
16401;SDS011;8310;44.626;11.176;2022-07-29T14:30:47;4.90;;;4.10;;
16401;SDS011;8310;44.626;11.176;2022-07-29T14:33:15;4.78;;;4.45;;
16401;SDS011;8310;44.626;11.176;2022-07-29T14:35:43;7.10;;;5.15;;
16401;SDS011;8310;44.626;11.176;2022-07-29T14:38:11;4.88;;;4.57;;
16401;SDS011;8310;44.626;11.176;2022-07-29T14:40:39;5.03;;;4.47;;
16401;SDS011;8310;44.626;11.176;2022-07-29T14:43:06;5.53;;;5.13;;
16401;SDS011;8310;44.626;11.176;2022-07-29T14:45:34;5.57;;;5.18;;
16401;SDS011;8310;44.626;11.176;2022-07-29T14:48:03;6.45;;;5.63;;
16401;SDS011;8310;44.626;11.176;2022-07-29T14:50:30;15.30;;;6.45;;
16401;SDS011;8310;44.626;11.176;2022-07-29T14:52:57;5.82;;;5.22;;
16401;SDS011;8310;44.626;11.176;2022-07-29T14:55:25;5.60;;;5.10;;
16401;SDS011;8310;44.626;11.176;2022-07-29T14:57:53;6.10;;;5.07;;
16401;SDS011;8310;44.626;11.176;2022-07-29T15:00:21;12.23;;;5.85;;
16401;SDS011;8310;44.626;11.176;2022-07-29T15:02:49;6.13;;;5.53;;
16401;SDS011;8310;44.626;11.176;2022-07-29T15:05:18;5.72;;;5.32;;
16401;SDS011;8310;44.626;11.176;2022-07-29T15:07:46;6.05;;;5.50;;
16401;SDS011;8310;44.626;11.176;2022-07-29T15:10:13;5.82;;;5.20;;
16401;SDS011;8310;44.626;11.176;2022-07-29T15:12:40;8.95;;;5.20;;
16401;SDS011;8310;44.626;11.176;2022-07-29T15:15:08;6.80;;;5.38;;
16401;SDS011;8310;44.626;11.176;2022-07-29T15:17:36;5.65;;;5.15;;
16401;SDS011;8310;44.626;11.176;2022-07-29T15:20:04;7.43;;;5.75;;